Time;durP1;ratioP1;P1;durP2;ratioP2;P2;SDS_P1;SDS_P2;PMS_P1;PMS_P2;Temp;Humidity;BMP_temperature;BMP_pressure;BME280_temperature;BME280_humidity;BME280_pressure;Samples;Min_cycle;Max_cycle;Signal;HPM_P1;HPM_P2
2023/06/01 00:02:16;;;;;;;7.57;3.40;;;21.60;81.10;;;;;;5038103;28;20051;-62
2023/06/01 00:04:42;;;;;;;8.07;3.47;;;21.50;81.00;;;;;;5046269;28;20064;-68
2023/06/01 00:07:08;;;;;;;8.50;3.55;;;21.40;79.60;;;;;;5035972;28;20049;-62
2023/06/01 00:09:34;;;;;;;8.48;3.20;;;21.30;80.90;;;;;;5031921;28;20104;-62
2023/06/01 00:12:00;;;;;;;7.72;3.40;;;21.50;81.10;;;;;;5047829;28;20475;-67
2023/06/01 00:14:26;;;;;;;6.45;3.42;;;21.50;81.00;;;;;;5049433;28;20135;-65
2023/06/01 00:16:52;;;;;;;7.57;3.15;;;21.70;81.10;;;;;;5038490;28;20467;-63
2023/06/01 00:19:18;;;;;;;6.80;3.30;;;21.40;81.10;;;;;;5037794;28;20036;-61
2023/06/01 00:21:44;;;;;;;9.38;3.78;;;21.40;80.00;;;;;;5041741;28;20045;-63
2023/06/01 00:24:10;;;;;;;6.82;3.30;;;21.50;81.10;;;;;;5038745;28;20132;-72
2023/06/01 00:26:36;;;;;;;8.60;3.65;;;;;;;;;;5040712;28;20057;-64
2023/06/01 00:29:01;;;;;;;8.15;3.80;;;21.40;81.00;;;;;;5039988;28;20041;-69
2023/06/01 00:31:27;;;;;;;9.48;3.88;;;21.30;81.00;;;;;;5048774;28;20051;-64
2023/06/01 00:33:53;;;;;;;6.90;3.30;;;21.30;80.90;;;;;;5044742;28;20395;-60
2023/06/01 00:36:19;;;;;;;8.65;3.42;;;21.60;77.10;;;;;;5049108;28;20491;-66
2023/06/01 00:38:45;;;;;;;7.78;3.80;;;21.50;81.10;;;;;;5042948;28;20057;-63
2023/06/01 00:41:11;;;;;;;7.57;3.40;;;21.50;81.00;;;;;;5047465;28;20083;-68
2023/06/01 00:43:37;;;;;;;6.88;3.40;;;;;;;;;;5040616;28;20037;-68
2023/06/01 00:46:03;;;;;;;8.57;3.60;;;21.40;80.90;;;;;;5035747;28;20046;-62
2023/06/01 00:48:29;;;;;;;7.75;3.50;;;21.30;80.80;;;;;;5038998;28;20042;-62
2023/06/01 00:50:56;;;;;;;6.35;3.05;;;;;;;;;;5048047;28;20045;-67
2023/06/01 00:53:22;;;;;;;8.93;3.35;;;21.30;81.00;;;;;;5035541;28;20056;-66
2023/06/01 00:55:48;;;;;;;7.50;3.15;;;21.30;80.80;;;;;;5033314;28;20049;-60
2023/06/01 00:58:14;;;;;;;9.93;3.67;;;21.40;81.00;;;;;;5045772;28;20098;-67
2023/06/01 01:00:41;;;;;;;9.40;3.47;;;;;;;;;;5036868;28;20068;-64
2023/06/01 01:03:10;;;;;;;7.78;3.70;;;21.30;80.80;;;;;;5037617;28;20438;-66
2023/06/01 01:05:36;;;;;;;8.45;4.05;;;21.40;81.00;;;;;;5036469;28;20080;-61
2023/06/01 01:08:17;;;;;;;6.75;3.25;;;21.30;80.90;;;;;;5036031;28;20049;-69
2023/06/01 01:10:53;;;;;;;7.60;3.40;;;21.50;81.10;;;;;;5036755;28;20049;-62
2023/06/01 01:13:37;;;;;;;10.27;3.80;;;21.40;76.30;;;;;;5037583;28;20146;-64
2023/06/01 01:16:08;;;;;;;7.13;2.95;;;21.50;81.20;;;;;;5034128;28;20407;-68
2023/06/01 01:18:37;;;;;;;7.03;2.90;;;21.50;81.10;;;;;;5042127;28;20038;-64
2023/06/01 01:21:21;;;;;;;7.68;3.22;;;21.60;81.10;;;;;;5045528;28;20045;-66
2023/06/01 01:24:06;;;;;;;8.43;3.40;;;21.30;79.40;;;;;;5036073;28;20045;-61
2023/06/01 01:26:57;;;;;;;8.00;3.28;;;21.50;79.20;;;;;;5050683;28;20459;-62
2023/06/01 01:29:23;;;;;;;6.57;3.17;;;21.40;81.10;;;;;;5031416;28;20550;-61
2023/06/01 01:31:49;;;;;;;7.00;2.97;;;21.30;81.10;;;;;;5033542;28;20060;-61
2023/06/01 01:34:15;;;;;;;7.20;3.00;;;21.10;81.10;;;;;;5035318;28;20046;-64
2023/06/01 01:36:41;;;;;;;7.70;3.25;;;21.40;81.20;;;;;;5040600;28;20048;-60
2023/06/01 01:39:07;;;;;;;5.40;2.63;;;;;;;;;;5052084;28;20045;-64
2023/06/01 01:41:33;;;;;;;8.50;3.63;;;21.30;81.10;;;;;;5051331;28;20380;-61
2023/06/01 01:43:59;;;;;;;7.45;2.92;;;21.10;81.10;;;;;;5035196;28;20127;-61
2023/06/01 01:46:26;;;;;;;7.15;2.70;;;21.30;81.20;;;;;;5047431;28;20124;-59
2023/06/01 01:49:15;;;;;;;6.65;3.13;;;21.40;76.50;;;;;;5044039;28;20060;-61
2023/06/01 01:51:46;;;;;;;8.13;2.97;;;21.30;81.20;;;;;;5051518;28;20041;-62
2023/06/01 01:54:12;;;;;;;6.43;3.03;;;21.40;81.30;;;;;;5052776;28;20045;-62
2023/06/01 01:56:38;;;;;;;6.47;2.88;;;;;;;;;;5036212;28;20041;-66
2023/06/01 01:59:04;;;;;;;7.53;2.92;;;21.10;81.20;;;;;;5053811;28;20045;-62
2023/06/01 02:01:30;;;;;;;6.53;3.00;;;21.40;81.20;;;;;;5051791;28;20037;-61
2023/06/01 02:04:03;;;;;;;5.50;2.80;;;21.20;81.20;;;;;;5039730;28;20056;-62
2023/06/01 02:06:29;;;;;;;7.05;3.05;;;21.20;81.40;;;;;;5034679;28;20079;-60
2023/06/01 02:08:55;;;;;;;7.07;2.95;;;;;;;;;;5033746;28;20061;-65
2023/06/01 02:11:21;;;;;;;7.68;2.60;;;21.00;81.10;;;;;;5034602;28;20045;-61
2023/06/01 02:13:47;;;;;;;7.07;2.90;;;21.00;81.10;;;;;;5040614;28;20056;-61
2023/06/01 02:16:13;;;;;;;8.15;2.70;;;;;;;;;;5041378;28;20037;-63
2023/06/01 02:18:41;;;;;;;6.25;2.67;;;21.00;81.30;;;;;;5040102;28;20045;-62
2023/06/01 02:21:08;;;;;;;8.77;3.20;;;21.10;81.10;;;;;;5034280;28;20045;-62
2023/06/01 02:23:35;;;;;;;7.70;3.03;;;21.10;81.10;;;;;;5036071;28;20492;-64
2023/06/01 02:26:00;;;;;;;7.60;2.65;;;21.20;81.30;;;;;;5042864;28;20481;-61
2023/06/01 02:28:26;;;;;;;5.60;2.67;;;21.10;81.20;;;;;;5043905;28;20125;-61
2023/06/01 02:30:52;;;;;;;7.35;2.80;;;21.30;81.30;;;;;;5049933;28;20045;-62
2023/06/01 02:33:18;;;;;;;6.85;2.90;;;;;;;;;;5043903;28;20083;-62
2023/06/01 02:35:44;;;;;;;7.18;3.05;;;;;;;;;;5048026;28;20570;-67
2023/06/01 02:38:10;;;;;;;5.38;2.67;;;21.10;81.20;;;;;;5049406;28;20095;-64
2023/06/01 02:40:36;;;;;;;7.22;2.63;;;;;;;;;;5037458;28;20167;-61
2023/06/01 02:43:02;;;;;;;6.30;2.65;;;21.20;81.40;;;;;;5036340;28;20105;-63
2023/06/01 02:45:28;;;;;;;8.85;2.97;;;21.20;81.50;;;;;;5050930;28;20037;-61
2023/06/01 02:47:54;;;;;;;8.25;2.92;;;21.20;81.40;;;;;;5041286;28;20048;-60
2023/06/01 02:50:20;;;;;;;6.45;3.22;;;21.30;81.60;;;;;;5036640;28;20468;-61
2023/06/01 02:52:45;;;;;;;6.35;2.67;;;21.10;81.50;;;;;;5046970;28;20120;-61
2023/06/01 02:55:11;;;;;;;6.30;2.83;;;21.20;79.10;;;;;;5043681;28;20041;-61
2023/06/01 02:57:37;;;;;;;7.03;2.72;;;;;;;;;;5034752;28;20403;-62
2023/06/01 03:00:04;;;;;;;9.15;3.00;;;21.10;81.50;;;;;;5033721;28;20451;-61
2023/06/01 03:02:30;;;;;;;6.63;2.92;;;;;;;;;;5033009;28;20143;-65
2023/06/01 03:04:57;;;;;;;7.78;2.97;;;;;;;;;;5038993;28;20044;-62
2023/06/01 03:07:22;;;;;;;6.25;2.90;;;21.20;81.70;;;;;;5042151;28;20041;-60
2023/06/01 03:09:48;;;;;;;8.30;2.97;;;21.30;81.60;;;;;;5046637;28;20494;-61
2023/06/01 03:12:14;;;;;;;9.57;3.35;;;21.00;81.60;;;;;;5047479;28;20038;-62
2023/06/01 03:14:40;;;;;;;9.40;2.92;;;21.40;81.70;;;;;;5035050;28;20094;-69
2023/06/01 03:17:06;;;;;;;9.40;3.28;;;;;;;;;;5035081;28;20048;-63
2023/06/01 03:19:31;;;;;;;7.75;2.97;;;21.20;81.60;;;;;;5033047;28;20068;-65
2023/06/01 03:21:57;;;;;;;7.20;3.15;;;21.30;81.60;;;;;;5046283;28;20071;-65
2023/06/01 03:24:25;;;;;;;6.68;2.83;;;21.10;81.60;;;;;;5040774;28;20041;-60
2023/06/01 03:26:51;;;;;;;8.30;2.85;;;21.00;80.20;;;;;;5040434;28;20526;-66
2023/06/01 03:29:17;;;;;;;8.43;2.85;;;20.90;81.50;;;;;;5037285;28;20045;-63
2023/06/01 03:31:43;;;;;;;6.40;2.90;;;21.20;81.70;;;;;;5039524;28;20053;-62
2023/06/01 03:34:08;;;;;;;7.28;2.97;;;21.30;81.70;;;;;;5041648;28;20049;-60
2023/06/01 03:36:36;;;;;;;8.35;2.92;;;21.30;81.70;;;;;;5046026;28;20036;-70
2023/06/01 03:39:07;;;;;;;6.22;2.85;;;;;;;;;;5044555;28;20560;-65
2023/06/01 03:41:34;;;;;;;6.07;2.93;;;21.00;81.60;;;;;;5044939;28;20041;-67
2023/06/01 03:44:00;;;;;;;6.65;2.72;;;20.80;78.40;;;;;;5033648;28;20047;-67
2023/06/01 03:46:26;;;;;;;8.52;2.90;;;21.00;81.70;;;;;;5042444;28;20132;-67
2023/06/01 03:48:52;;;;;;;6.30;2.53;;;;;;;;;;5031241;28;20053;-64
2023/06/01 03:51:18;;;;;;;6.22;2.67;;;21.30;81.90;;;;;;5032744;28;20046;-69
2023/06/01 03:53:43;;;;;;;6.70;2.90;;;21.00;81.60;;;;;;5038985;28;20048;-60
2023/06/01 03:56:09;;;;;;;7.45;2.88;;;21.00;81.60;;;;;;5042369;28;20399;-68
2023/06/01 03:58:35;;;;;;;7.32;2.95;;;21.00;81.70;;;;;;5044058;28;20048;-60
2023/06/01 04:01:03;;;;;;;7.32;3.08;;;20.70;81.80;;;;;;5046064;28;20045;-60
2023/06/01 04:03:29;;;;;;;6.45;3.15;;;21.00;81.60;;;;;;5045934;28;20045;-60
2023/06/01 04:05:59;;;;;;;6.25;2.88;;;21.00;81.80;;;;;;5037033;28;20052;-62
2023/06/01 04:08:26;;;;;;;7.70;3.05;;;21.10;81.80;;;;;;5040145;28;20423;-63
2023/06/01 04:10:52;;;;;;;6.20;2.78;;;21.00;81.80;;;;;;5052454;28;20098;-62
2023/06/01 04:13:18;;;;;;;9.20;3.33;;;21.00;81.80;;;;;;5036553;28;20479;-61
2023/06/01 04:15:44;;;;;;;10.13;3.67;;;;;;;;;;5047619;28;20399;-68
2023/06/01 04:18:10;;;;;;;6.80;3.10;;;21.00;81.80;;;;;;5035014;28;20033;-67
2023/06/01 04:20:35;;;;;;;6.50;2.60;;;21.20;81.90;;;;;;5036224;28;20051;-62
2023/06/01 04:23:01;;;;;;;6.90;2.58;;;;;;;;;;5035803;28;20403;-62
2023/06/01 04:25:28;;;;;;;7.80;2.65;;;21.00;81.80;;;;;;5044218;28;20114;-62
2023/06/01 04:27:54;;;;;;;6.38;2.63;;;21.10;81.50;;;;;;5050118;28;20092;-61
2023/06/01 04:30:20;;;;;;;8.43;3.15;;;21.10;81.80;;;;;;5043221;28;20462;-67
2023/06/01 04:32:47;;;;;;;6.65;2.80;;;21.10;81.90;;;;;;5042660;28;20045;-60
2023/06/01 04:35:13;;;;;;;7.13;3.03;;;21.10;81.70;;;;;;5037187;28;20045;-68
2023/06/01 04:37:40;;;;;;;5.60;2.50;;;20.80;81.70;;;;;;5049578;28;20048;-62
2023/06/01 04:40:07;;;;;;;5.13;2.88;;;21.10;81.90;;;;;;5041247;28;20406;-60
2023/06/01 04:42:48;;;;;;;5.65;2.47;;;21.00;81.90;;;;;;5048253;28;20487;-60
2023/06/01 04:45:15;;;;;;;6.50;2.90;;;20.90;81.90;;;;;;5048219;28;20560;-61
2023/06/01 04:47:44;;;;;;;7.55;3.10;;;21.00;81.80;;;;;;5049043;28;20494;-61
2023/06/01 04:50:11;;;;;;;5.55;2.85;;;20.90;81.80;;;;;;5040111;28;20104;-60
2023/06/01 04:52:37;;;;;;;5.43;2.47;;;20.70;80.70;;;;;;5050972;28;20108;-60
2023/06/01 04:55:06;;;;;;;5.90;2.60;;;21.20;81.90;;;;;;5045640;28;20053;-65
2023/06/01 04:57:36;;;;;;;6.43;2.42;;;21.00;82.00;;;;;;5046918;28;20092;-70
2023/06/01 05:00:11;;;;;;;6.57;2.58;;;20.90;77.10;;;;;;5035616;28;20049;-66
2023/06/01 05:02:37;;;;;;;7.65;2.47;;;21.00;78.60;;;;;;5055276;28;20044;-62
2023/06/01 05:05:04;;;;;;;5.07;2.30;;;21.00;81.80;;;;;;5051086;28;20049;-67
2023/06/01 05:07:30;;;;;;;6.03;2.60;;;;;;;;;;5045023;28;20129;-67
2023/06/01 05:09:57;;;;;;;6.78;2.17;;;21.10;81.90;;;;;;5035692;28;20111;-61
2023/06/01 05:12:23;;;;;;;6.13;2.47;;;21.20;82.00;;;;;;5050106;28;20033;-62
2023/06/01 05:14:49;;;;;;;6.35;2.60;;;;;;;;;;5035100;28;20457;-67
2023/06/01 05:17:15;;;;;;;5.88;2.40;;;21.10;81.20;;;;;;5040087;28;20041;-64
2023/06/01 05:19:41;;;;;;;5.40;2.17;;;21.00;79.30;;;;;;5046395;28;20052;-61
2023/06/01 05:22:07;;;;;;;4.55;2.30;;;;;;;;;;5047682;28;20171;-67
2023/06/01 05:24:33;;;;;;;4.68;2.20;;;21.10;81.90;;;;;;5053366;28;20041;-63
2023/06/01 05:26:58;;;;;;;4.18;2.40;;;21.10;81.90;;;;;;5050453;28;20049;-60
2023/06/01 05:29:24;;;;;;;5.25;2.25;;;21.00;81.90;;;;;;5045020;28;20137;-64
2023/06/01 05:31:50;;;;;;;6.57;2.40;;;21.00;81.90;;;;;;5047244;28;20597;-61
2023/06/01 05:34:16;;;;;;;5.22;2.35;;;21.00;81.90;;;;;;5053776;28;20040;-63
2023/06/01 05:36:42;;;;;;;6.70;2.40;;;21.00;81.90;;;;;;5040203;28;20056;-67
2023/06/01 05:39:08;;;;;;;7.45;2.92;;;21.10;81.90;;;;;;5054432;28;20041;-66
2023/06/01 05:41:34;;;;;;;5.20;2.10;;;21.30;82.10;;;;;;5035883;28;20510;-60
2023/06/01 05:43:59;;;;;;;5.40;2.25;;;21.40;82.20;;;;;;5034373;28;20064;-60
2023/06/01 05:46:25;;;;;;;5.63;2.20;;;21.20;80.20;;;;;;5042596;28;20094;-63
2023/06/01 05:48:51;;;;;;;4.20;2.00;;;;;;;;;;5049029;28;20041;-69
2023/06/01 05:51:17;;;;;;;5.30;2.13;;;21.10;82.00;;;;;;5053315;28;20095;-71
2023/06/01 05:53:43;;;;;;;3.97;1.77;;;21.20;82.10;;;;;;5054524;28;20068;-70
2023/06/01 05:56:09;;;;;;;4.55;1.98;;;;;;;;;;5053066;28;20479;-70
2023/06/01 05:58:35;;;;;;;4.40;2.05;;;21.00;82.00;;;;;;5033696;28;20387;-69
2023/06/01 06:01:01;;;;;;;4.35;1.85;;;21.20;82.10;;;;;;5034493;28;20045;-72
2023/06/01 06:03:28;;;;;;;5.75;1.95;;;21.20;82.20;;;;;;5037998;28;20029;-71
2023/06/01 06:05:54;;;;;;;4.40;2.22;;;21.10;82.10;;;;;;5054269;28;20044;-73
2023/06/01 06:08:21;;;;;;;4.80;1.67;;;;;;;;;;5053899;28;20571;-66
2023/06/01 06:10:47;;;;;;;3.90;1.70;;;;;;;;;;5047141;28;20056;-64
2023/06/01 06:13:14;;;;;;;3.95;1.90;;;21.30;79.10;;;;;;5048103;28;20689;-69
2023/06/01 06:15:40;;;;;;;3.70;1.60;;;21.40;82.40;;;;;;5038330;28;20116;-64
2023/06/01 06:18:06;;;;;;;3.80;1.90;;;;;;;;;;5044716;28;20124;-61
2023/06/01 06:20:31;;;;;;;3.95;1.83;;;21.30;82.40;;;;;;5046838;28;20044;-60
2023/06/01 06:22:57;;;;;;;4.68;1.98;;;21.20;82.30;;;;;;5033417;28;20049;-72
2023/06/01 06:25:23;;;;;;;3.53;1.77;;;21.20;82.30;;;;;;5037240;28;20065;-60
2023/06/01 06:27:49;;;;;;;4.05;1.75;;;21.20;81.60;;;;;;5034953;28;20175;-61
2023/06/01 06:30:15;;;;;;;4.78;1.80;;;21.30;81.60;;;;;;5034093;28;20049;-62
2023/06/01 06:32:41;;;;;;;4.38;1.77;;;;;;;;;;5034370;28;20044;-62
2023/06/01 06:35:07;;;;;;;5.38;1.80;;;21.30;82.30;;;;;;5034912;28;20088;-61
2023/06/01 06:37:33;;;;;;;4.43;2.05;;;;;;;;;;5031922;28;20100;-63
2023/06/01 06:39:59;;;;;;;4.18;1.65;;;;;;;;;;5034360;28;20045;-61
2023/06/01 06:42:25;;;;;;;5.90;1.80;;;21.50;82.50;;;;;;5043048;28;20036;-70
2023/06/01 06:44:51;;;;;;;4.07;1.52;;;21.20;82.30;;;;;;5048377;28;20521;-64
2023/06/01 06:47:19;;;;;;;3.95;1.65;;;21.60;79.80;;;;;;5028600;28;20044;-63
2023/06/01 06:49:45;;;;;;;3.72;1.70;;;21.60;82.60;;;;;;5038077;28;20053;-61
2023/06/01 06:52:11;;;;;;;3.92;1.90;;;21.30;82.50;;;;;;5045103;28;20375;-62
2023/06/01 06:54:42;;;;;;;3.33;1.60;;;21.50;79.70;;;;;;5037541;28;20667;-60
2023/06/01 06:57:08;;;;;;;4.18;1.42;;;21.50;82.50;;;;;;5036492;28;20365;-60
2023/06/01 06:59:34;;;;;;;3.53;1.70;;;21.10;82.40;;;;;;5032947;28;20045;-60
2023/06/01 07:02:00;;;;;;;7.10;1.83;;;21.30;82.40;;;;;;5032968;28;20495;-60
2023/06/01 07:04:27;;;;;;;2.17;1.30;;;21.50;82.60;;;;;;5041606;28;20059;-61
2023/06/01 07:06:54;;;;;;;3.90;1.58;;;21.50;82.50;;;;;;5044591;28;20042;-61
2023/06/01 07:09:20;;;;;;;4.22;1.70;;;21.50;82.50;;;;;;5049365;28;20111;-61
2023/06/01 07:11:47;;;;;;;3.85;1.50;;;21.70;82.60;;;;;;5052818;28;20041;-66
2023/06/01 07:14:14;;;;;;;3.60;1.40;;;21.50;80.90;;;;;;5050636;28;20053;-62
2023/06/01 07:16:40;;;;;;;3.47;1.70;;;21.40;82.50;;;;;;5045860;28;20048;-60
2023/06/01 07:19:07;;;;;;;5.85;1.50;;;22.50;80.00;;;;;;5052748;28;20449;-64
2023/06/01 07:21:32;;;;;;;4.10;1.50;;;21.50;82.60;;;;;;5049527;28;20106;-67
2023/06/01 07:23:58;;;;;;;4.15;1.65;;;21.40;82.60;;;;;;5040544;28;20115;-69
2023/06/01 07:26:28;;;;;;;4.80;1.65;;;21.60;82.60;;;;;;5048496;28;20158;-71
2023/06/01 07:28:54;;;;;;;4.05;1.50;;;21.50;82.60;;;;;;5043505;28;20073;-61
2023/06/01 07:31:21;;;;;;;3.58;1.50;;;21.40;82.60;;;;;;5046312;28;20410;-61
2023/06/01 07:33:47;;;;;;;5.18;1.70;;;21.60;82.50;;;;;;5049337;28;20048;-62
2023/06/01 07:36:14;;;;;;;5.22;1.67;;;21.40;82.60;;;;;;5052066;28;20048;-60
2023/06/01 07:38:40;;;;;;;3.08;1.60;;;21.60;82.70;;;;;;5048612;28;20049;-69
2023/06/01 07:41:06;;;;;;;3.75;1.60;;;21.50;82.70;;;;;;5045319;28;20037;-68
2023/06/01 07:43:32;;;;;;;3.45;1.60;;;21.50;81.20;;;;;;5042334;28;20052;-61
2023/06/01 07:45:58;;;;;;;5.03;1.50;;;21.60;82.70;;;;;;5049781;28;20049;-60
2023/06/01 07:48:23;;;;;;;4.43;1.67;;;21.50;82.60;;;;;;5037784;28;20368;-68
2023/06/01 07:50:50;;;;;;;4.25;1.70;;;21.50;82.60;;;;;;5043326;28;20045;-64
2023/06/01 07:53:18;;;;;;;5.10;1.90;;;21.50;82.70;;;;;;5043517;28;20044;-74
2023/06/01 07:55:43;;;;;;;5.70;1.80;;;21.30;82.40;;;;;;5047850;28;20124;-69
2023/06/01 07:58:09;;;;;;;3.63;1.85;;;21.70;82.80;;;;;;5037862;28;20566;-60
2023/06/01 08:00:35;;;;;;;5.57;1.77;;;21.60;82.70;;;;;;5046367;28;20061;-60
2023/06/01 08:03:06;;;;;;;6.00;2.00;;;21.20;82.50;;;;;;5032655;28;20052;-60
2023/06/01 08:05:34;;;;;;;3.72;1.65;;;21.50;82.70;;;;;;5034130;28;20048;-72
2023/06/01 08:08:00;;;;;;;7.00;2.20;;;21.40;82.70;;;;;;5051360;28;20048;-66
2023/06/01 08:10:26;;;;;;;4.57;1.80;;;21.40;82.70;;;;;;5052466;28;20049;-64
2023/06/01 08:12:55;;;;;;;4.80;1.98;;;21.20;82.70;;;;;;5046128;28;20107;-60
2023/06/01 08:15:23;;;;;;;5.15;1.95;;;21.60;82.80;;;;;;5033278;28;20564;-69
2023/06/01 08:17:50;;;;;;;4.82;1.92;;;21.50;82.70;;;;;;5032482;28;20049;-71
2023/06/01 08:20:21;;;;;;;6.88;2.47;;;21.60;82.80;;;;;;5032315;28;20045;-61
2023/06/01 08:22:47;;;;;;;4.65;2.08;;;;;;;;;;5032456;28;20037;-64
2023/06/01 08:25:14;;;;;;;4.25;1.83;;;;;;;;;;5031939;28;20062;-66
2023/06/01 08:27:40;;;;;;;4.40;1.77;;;21.60;82.70;;;;;;5046490;28;20049;-70
2023/06/01 08:30:07;;;;;;;6.10;1.88;;;21.50;82.70;;;;;;5043992;28;20517;-61
2023/06/01 08:32:33;;;;;;;5.90;2.30;;;21.70;82.70;;;;;;5032569;28;20041;-61
2023/06/01 08:34:59;;;;;;;5.28;2.40;;;;;;;;;;5031993;28;20049;-65
2023/06/01 08:37:25;;;;;;;8.98;2.55;;;21.40;82.60;;;;;;5032040;28;20046;-72
2023/06/01 08:39:51;;;;;;;5.55;2.30;;;;;;;;;;5036462;28;20037;-61
2023/06/01 08:42:25;;;;;;;5.90;2.40;;;21.60;82.80;;;;;;5047855;28;20087;-70
2023/06/01 08:44:53;;;;;;;6.22;2.33;;;21.30;82.70;;;;;;5051681;28;20561;-71
2023/06/01 08:47:19;;;;;;;6.63;2.47;;;;;;;;;;5040638;28;20099;-61
2023/06/01 08:49:46;;;;;;;5.97;2.20;;;;;;;;;;5036160;28;20049;-63
2023/06/01 08:52:13;;;;;;;5.13;2.20;;;21.80;83.10;;;;;;5045830;28;20043;-61
2023/06/01 08:54:38;;;;;;;6.97;2.15;;;21.60;82.90;;;;;;5045788;28;20107;-61
2023/06/01 08:57:08;;;;;;;7.72;2.30;;;21.50;79.80;;;;;;5047536;28;20441;-65
2023/06/01 08:59:36;;;;;;;14.35;2.83;;;21.50;83.00;;;;;;5047432;28;20076;-60
2023/06/01 09:02:02;;;;;;;21.48;3.70;;;;;;;;;;5035856;28;20049;-61
2023/06/01 09:04:31;;;;;;;15.35;3.15;;;21.70;83.00;;;;;;5036415;28;20072;-61
2023/06/01 09:06:57;;;;;;;17.90;3.38;;;21.80;83.00;;;;;;5042701;28;20049;-62
2023/06/01 09:09:23;;;;;;;10.95;2.80;;;21.60;82.80;;;;;;5055433;28;20045;-63
2023/06/01 09:12:23;;;;;;;14.40;3.17;;;21.70;82.90;;;;;;5055110;28;20388;-62
2023/06/01 09:14:50;;;;;;;9.90;2.88;;;21.80;83.00;;;;;;5038682;28;20045;-70
2023/06/01 09:17:23;;;;;;;16.33;3.10;;;21.60;82.60;;;;;;5053678;28;20049;-61
2023/06/01 09:19:52;;;;;;;8.88;2.80;;;21.50;82.70;;;;;;5039934;28;20053;-61
2023/06/01 09:22:18;;;;;;;12.48;3.00;;;21.70;82.80;;;;;;5034727;28;20054;-66
2023/06/01 09:24:56;;;;;;;12.27;2.80;;;21.70;83.00;;;;;;5042661;28;20065;-60
2023/06/01 09:27:21;;;;;;;10.43;2.90;;;21.90;82.80;;;;;;5035438;28;20053;-66
2023/06/01 09:29:57;;;;;;;9.40;2.88;;;21.60;82.70;;;;;;5038550;28;20047;-61
2023/06/01 09:32:22;;;;;;;12.05;2.88;;;21.60;82.70;;;;;;5036880;28;20053;-60
2023/06/01 09:34:49;;;;;;;9.82;3.28;;;;;;;;;;5037620;28;20056;-67
2023/06/01 09:37:15;;;;;;;8.23;2.70;;;21.70;82.70;;;;;;5043270;28;20099;-62
2023/06/01 09:39:41;;;;;;;9.23;2.85;;;21.70;80.40;;;;;;5040459;28;20049;-61
2023/06/01 09:42:07;;;;;;;7.55;2.70;;;21.50;82.60;;;;;;5038363;28;20049;-71
2023/06/01 09:44:34;;;;;;;11.65;3.70;;;21.70;82.70;;;;;;5037023;28;20048;-68
2023/06/01 09:47:02;;;;;;;7.93;2.45;;;21.90;82.70;;;;;;5037597;28;20042;-66
2023/06/01 09:49:31;;;;;;;8.93;2.72;;;21.70;82.50;;;;;;5040200;28;20057;-62
2023/06/01 09:52:06;;;;;;;7.53;3.00;;;21.80;82.60;;;;;;5038629;28;20544;-72
2023/06/01 09:54:40;;;;;;;8.52;2.90;;;21.80;82.70;;;;;;5041169;28;20096;-60
2023/06/01 09:57:06;;;;;;;6.35;2.35;;;21.80;82.60;;;;;;5042674;28;20045;-61
2023/06/01 09:59:45;;;;;;;6.95;2.38;;;22.00;82.80;;;;;;5035861;28;20545;-62
2023/06/01 10:02:21;;;;;;;9.60;2.72;;;21.70;82.50;;;;;;5038850;28;20107;-60
2023/06/01 10:04:52;;;;;;;10.18;2.50;;;21.80;82.60;;;;;;5047834;28;20053;-61
2023/06/01 10:07:19;;;;;;;7.00;2.47;;;21.80;82.50;;;;;;5036506;28;20099;-64
2023/06/01 10:09:50;;;;;;;6.38;2.75;;;21.90;82.50;;;;;;5034502;28;20458;-70
2023/06/01 10:12:16;;;;;;;8.18;2.60;;;21.90;82.40;;;;;;5032999;28;20077;-67
2023/06/01 10:14:42;;;;;;;7.88;2.90;;;21.70;82.10;;;;;;5033245;28;20068;-71
2023/06/01 10:17:09;;;;;;;8.40;2.80;;;;;;;;;;5042155;28;20049;-64
2023/06/01 10:19:36;;;;;;;10.13;3.00;;;21.90;81.10;;;;;;5046489;28;20053;-71
2023/06/01 10:22:03;;;;;;;8.10;2.65;;;22.20;81.90;;;;;;5051274;28;20049;-70
2023/06/01 10:24:29;;;;;;;6.80;2.80;;;22.10;80.70;;;;;;5047092;28;20390;-66
2023/06/01 10:27:05;;;;;;;11.23;2.90;;;21.90;81.50;;;;;;5035576;28;20045;-71
2023/06/01 10:29:31;;;;;;;8.27;2.70;;;22.20;81.40;;;;;;5040616;28;20053;-66
2023/06/01 10:31:57;;;;;;;30.75;4.90;;;;;;;;;;5048943;28;20106;-66
2023/06/01 10:34:44;;;;;;;20.80;3.65;;;22.00;78.20;;;;;;5047745;28;20041;-70
2023/06/01 10:37:14;;;;;;;20.67;3.40;;;22.00;81.30;;;;;;5040274;28;20045;-64
2023/06/01 10:39:40;;;;;;;15.90;3.78;;;22.20;81.30;;;;;;5049156;28;20099;-74
2023/06/01 10:42:14;;;;;;;15.25;2.97;;;22.20;81.20;;;;;;5053439;28;20406;-61
2023/06/01 10:44:40;;;;;;;21.45;3.45;;;22.10;81.00;;;;;;5053458;28;20116;-71
2023/06/01 10:47:06;;;;;;;9.85;3.08;;;22.00;81.00;;;;;;5037201;28;20128;-62
2023/06/01 10:49:50;;;;;;;14.70;3.30;;;22.10;81.00;;;;;;5044597;28;20383;-62
2023/06/01 10:52:35;;;;;;;9.02;3.17;;;22.00;81.00;;;;;;5033258;28;20100;-62
2023/06/01 10:55:07;;;;;;;8.73;2.45;;;22.30;81.10;;;;;;5049933;28;20398;-62
2023/06/01 10:57:33;;;;;;;9.88;2.97;;;22.30;81.00;;;;;;5051598;28;20041;-61
2023/06/01 11:00:26;;;;;;;9.65;2.90;;;22.20;81.00;;;;;;5043947;28;20654;-61
2023/06/01 11:02:56;;;;;;;6.88;2.50;;;21.80;80.70;;;;;;5045215;28;20061;-61
2023/06/01 11:05:42;;;;;;;10.48;2.92;;;22.00;80.80;;;;;;5033269;28;20402;-61
2023/06/01 11:08:23;;;;;;;8.48;2.85;;;22.20;81.00;;;;;;5033338;28;20053;-66
2023/06/01 11:10:52;;;;;;;7.10;2.63;;;22.10;80.90;;;;;;5038130;28;20049;-72
2023/06/01 11:13:24;;;;;;;6.35;2.17;;;22.10;80.90;;;;;;5044853;28;20394;-68
2023/06/01 11:16:09;;;;;;;10.52;2.90;;;22.30;81.00;;;;;;5053029;28;20051;-62
2023/06/01 11:18:41;;;;;;;10.40;2.72;;;22.10;80.90;;;;;;5052333;28;20045;-69
2023/06/01 11:21:39;;;;;;;8.43;2.60;;;22.00;80.80;;;;;;5048117;28;20103;-66
2023/06/01 11:24:10;;;;;;;7.13;2.67;;;21.90;77.70;;;;;;5052308;28;20041;-68
2023/06/01 11:26:47;;;;;;;8.25;2.47;;;22.10;79.40;;;;;;5050681;28;20061;-70
2023/06/01 11:29:21;;;;;;;9.60;2.60;;;22.10;80.90;;;;;;5051011;28;20494;-63
2023/06/01 11:31:58;;;;;;;7.30;2.58;;;22.20;78.10;;;;;;5041790;28;20068;-72
2023/06/01 11:34:34;;;;;;;7.75;2.75;;;22.20;80.90;;;;;;5043203;28;20041;-63
2023/06/01 11:37:01;;;;;;;6.93;2.33;;;22.00;80.70;;;;;;5046563;28;20094;-68
2023/06/01 11:39:30;;;;;;;7.18;2.35;;;22.20;80.80;;;;;;5048580;28;20056;-65
2023/06/01 11:42:10;;;;;;;5.30;2.38;;;21.90;77.10;;;;;;5034189;28;20049;-68
2023/06/01 11:44:42;;;;;;;7.13;2.58;;;22.20;76.80;;;;;;5032715;28;20045;-69
2023/06/01 11:47:08;;;;;;;8.18;2.53;;;22.00;80.80;;;;;;5032468;28;20616;-61
2023/06/01 11:49:48;;;;;;;6.63;2.47;;;22.10;81.00;;;;;;5039310;28;20125;-62
2023/06/01 11:52:15;;;;;;;6.95;2.05;;;22.30;77.70;;;;;;5038616;28;20048;-66
2023/06/01 11:54:41;;;;;;;9.95;2.65;;;22.20;80.90;;;;;;5032462;28;20041;-68
2023/06/01 11:57:07;;;;;;;11.75;2.83;;;22.10;81.00;;;;;;5031028;28;20134;-61
2023/06/01 11:59:44;;;;;;;19.30;3.42;;;22.10;80.90;;;;;;5032536;28;20049;-64
2023/06/01 12:02:26;;;;;;;13.68;2.90;;;22.10;80.90;;;;;;5038587;28;20128;-74
2023/06/01 12:04:59;;;;;;;9.10;2.95;;;22.20;80.90;;;;;;5030783;28;20049;-72
2023/06/01 12:07:24;;;;;;;;;;;22.20;78.70;;;;;;5032752;28;20054;-64
2023/06/01 12:09:54;;;;;;;8.77;2.45;;;22.10;80.90;;;;;;5046000;28;19922;-62
2023/06/01 12:12:22;;;;;;;10.93;2.92;;;22.10;80.60;;;;;;5041100;28;20139;-62
2023/06/01 12:14:49;;;;;;;9.55;2.55;;;22.20;77.80;;;;;;5038201;28;20702;-69
2023/06/01 12:17:14;;;;;;;13.73;2.65;;;22.10;80.90;;;;;;5035927;28;20045;-72
2023/06/01 12:19:47;;;;;;;10.52;2.88;;;22.10;80.90;;;;;;5032126;28;20160;-72
2023/06/01 12:22:13;;;;;;;10.95;2.45;;;;;;;;;;5038405;28;20119;-64
2023/06/01 12:24:39;;;;;;;8.20;2.28;;;22.10;80.90;;;;;;5049183;28;20045;-70
2023/06/01 12:27:14;;;;;;;7.28;2.60;;;22.10;80.90;;;;;;5052168;28;20048;-73
2023/06/01 12:29:41;;;;;;;10.23;3.05;;;22.00;80.70;;;;;;5032078;28;20056;-61
2023/06/01 12:32:08;;;;;;;7.70;2.90;;;22.20;80.80;;;;;;5032276;28;20049;-74
2023/06/01 12:34:37;;;;;;;7.38;2.58;;;22.20;77.50;;;;;;5047771;28;20041;-73
2023/06/01 12:37:15;;;;;;;10.63;2.42;;;22.00;80.70;;;;;;5054887;28;20053;-73
2023/06/01 12:39:41;;;;;;;6.30;2.40;;;22.20;80.80;;;;;;5056029;28;20190;-64
2023/06/01 12:42:09;;;;;;;9.73;2.50;;;;;;;;;;5054355;28;20041;-68
2023/06/01 12:44:35;;;;;;;5.55;2.65;;;22.20;80.70;;;;;;5036247;28;20045;-64
2023/06/01 12:47:01;;;;;;;10.02;2.70;;;22.30;80.70;;;;;;5045294;28;20048;-66
2023/06/01 12:49:27;;;;;;;7.25;2.40;;;22.20;80.60;;;;;;5055533;28;20498;-70
2023/06/01 12:51:53;;;;;;;7.35;2.70;;;22.10;80.50;;;;;;5054633;28;20452;-66
2023/06/01 12:54:19;;;;;;;7.07;2.90;;;21.90;80.30;;;;;;5042091;28;20128;-61
2023/06/01 12:56:48;;;;;;;6.82;2.55;;;22.20;80.50;;;;;;5055396;28;20053;-67
2023/06/01 12:59:14;;;;;;;5.65;2.30;;;22.20;77.70;;;;;;5055696;28;20425;-71
2023/06/01 13:01:40;;;;;;;8.10;2.72;;;22.20;77.90;;;;;;5051052;28;20394;-64
2023/06/01 13:04:07;;;;;;;22.35;3.60;;;22.20;80.20;;;;;;5036862;28;20034;-72
2023/06/01 13:06:34;;;;;;;15.93;2.67;;;22.20;80.30;;;;;;5042927;28;20414;-67